createdAt,value
2023-04-02T00:00:37.717Z,100087.06
2023-04-02T00:01:41.104Z,100096.59
2023-04-02T00:02:46.422Z,100094.13
2023-04-02T00:03:59.276Z,100097.69
2023-04-02T00:05:16.520Z,100097.66
2023-04-02T00:06:32.760Z,100097.69
2023-04-02T00:07:38.207Z,100101.97
2023-04-02T00:08:43.386Z,100110.66
2023-04-02T00:09:45.681Z,100111.00
2023-04-02T00:10:51.454Z,100114.50
2023-04-02T00:11:56.559Z,100106.75
2023-04-02T00:13:05.885Z,100109.59
2023-04-02T00:14:17.981Z,100114.78
2023-04-02T00:15:20.368Z,100118.56
2023-04-02T00:16:25.042Z,100129.13
2023-04-02T00:17:27.284Z,100121.38
2023-04-02T00:18:31.067Z,100118.94
2023-04-02T00:19:58.026Z,100117.47
2023-04-02T00:21:17.192Z,100127.03
2023-04-02T00:22:22.002Z,100124.91
2023-04-02T00:23:24.636Z,100127.53
2023-04-02T00:24:27.119Z,100125.53
2023-04-02T00:25:34.152Z,100123.72
2023-04-02T00:26:41.150Z,100128.47
2023-04-02T00:27:44.467Z,100132.88
2023-04-02T00:28:46.886Z,100137.34
2023-04-02T00:29:55.474Z,100135.53
2023-04-02T00:31:00.275Z,100134.53
2023-04-02T00:32:03.023Z,100141.69
2023-04-02T00:33:05.477Z,100133.72
2023-04-02T00:34:14.762Z,100141.03
2023-04-02T00:35:26.096Z,100135.50
2023-04-02T00:36:33.991Z,100143.53
2023-04-02T00:37:39.527Z,100142.84
2023-04-02T00:38:44.117Z,100135.81
2023-04-02T00:39:47.538Z,100145.53
2023-04-02T00:40:51.568Z,100150.75
2023-04-02T00:42:05.093Z,100150.88
2023-04-02T00:43:08.203Z,100153.16
2023-04-02T00:44:12.642Z,100143.53
2023-04-02T00:45:37.438Z,100156.31
2023-04-02T00:46:47.306Z,100152.41
2023-04-02T00:47:50.560Z,100156.84
2023-04-02T00:49:15.187Z,100157.84
2023-04-02T00:50:41.513Z,100161.38
2023-04-02T00:52:23.248Z,100163.78
2023-04-02T00:53:29.853Z,100173.03
2023-04-02T00:54:39.065Z,100168.63
2023-04-02T00:55:42.263Z,100171.28
2023-04-02T00:56:47.272Z,100165.09
2023-04-02T00:57:51.947Z,100170.44
2023-04-02T00:58:56.456Z,100173.16
2023-04-02T01:00:08.553Z,100172.25
2023-04-02T01:01:19.387Z,100171.50
2023-04-02T01:02:33.702Z,100173.16
2023-04-02T01:03:39.108Z,100171.47
2023-04-02T01:04:41.819Z,100175.53
2023-04-02T01:05:48.321Z,100175.44
2023-04-02T01:06:53.404Z,100178.75
2023-04-02T01:08:01.299Z,100179.78
2023-04-02T01:09:33.928Z,100189.63
2023-04-02T01:11:10.169Z,100190.25
2023-04-02T01:12:24.915Z,100188.91
2023-04-02T01:13:37.952Z,100192.47
2023-04-02T01:14:46.136Z,100199.91
2023-04-02T01:16:26.014Z,100196.56
2023-04-02T01:17:37.610Z,100195.59
2023-04-02T01:18:47.217Z,100198.22
2023-04-02T01:20:11.532Z,100206.41
2023-04-02T01:21:31.849Z,100199.94
2023-04-02T01:23:17.065Z,100208.47
2023-04-02T01:24:24.769Z,100207.06
2023-04-02T01:25:35.968Z,100205.38
2023-04-02T01:26:49.925Z,100207.38
2023-04-02T01:28:20.993Z,100212.56
2023-04-02T01:29:40.292Z,100214.13
2023-04-02T01:30:49.641Z,100224.75
2023-04-02T01:31:55.014Z,100219.47
2023-04-02T01:32:57.278Z,100216.81
2023-04-02T01:34:00.852Z,100221.94
2023-04-02T01:35:04.743Z,100222.72
2023-04-02T01:36:11.748Z,100233.38
2023-04-02T01:37:36.818Z,100236.03
2023-04-02T01:38:53.750Z,100231.09
2023-04-02T01:40:35.238Z,100231.09
2023-04-02T01:41:47.873Z,100238.97
2023-04-02T01:43:22.427Z,100236.31
2023-04-02T01:44:46.762Z,100248.31
2023-04-02T01:45:50.431Z,100236.84
2023-04-02T01:46:52.855Z,100254.28
2023-04-02T01:47:55.815Z,100249.78
2023-04-02T01:49:02.589Z,100248.88
2023-04-02T01:50:14.879Z,100245.41
2023-04-02T01:51:28.662Z,100255.22
2023-04-02T01:52:41.591Z,100249.22
2023-04-02T01:53:44.466Z,100254.50
2023-04-02T01:54:47.832Z,100262.44
2023-04-02T01:55:53.287Z,100259.91
2023-04-02T01:56:57.765Z,100263.50
2023-04-02T01:58:02.005Z,100267.00
2023-04-02T01:59:06.006Z,100271.47
2023-04-02T02:00:15.271Z,100267.66
2023-04-02T02:01:23.426Z,100281.94
2023-04-02T02:02:28.367Z,100274.88
2023-04-02T02:03:31.190Z,100274.84
2023-04-02T02:04:34.295Z,100274.09
2023-04-02T02:05:37.491Z,100274.03
2023-04-02T02:06:40.627Z,100277.59
2023-04-02T02:07:43.532Z,100280.66
2023-04-02T02:08:51.679Z,100284.28
2023-04-02T02:09:54.091Z,100286.22
2023-04-02T02:10:57.785Z,100285.41
2023-04-02T02:12:02.971Z,100287.28
2023-04-02T02:13:05.212Z,100295.00
2023-04-02T02:14:17.205Z,100288.19
2023-04-02T02:15:23.482Z,100298.75
2023-04-02T02:16:28.234Z,100298.50
2023-04-02T02:17:35.059Z,100304.09
2023-04-02T02:18:37.549Z,100314.09
2023-04-02T02:19:45.540Z,100300.03
2023-04-02T02:20:48.030Z,100303.53
2023-04-02T02:21:54.006Z,100306.16
2023-04-02T02:22:57.085Z,100302.72
2023-04-02T02:24:00.360Z,100309.81
2023-04-02T02:25:05.848Z,100314.91
2023-04-02T02:26:13.087Z,100322.09
2023-04-02T02:27:22.936Z,100315.97
2023-04-02T02:28:36.466Z,100319.56
2023-04-02T02:29:42.972Z,100316.06
2023-04-02T02:30:50.649Z,100324.66
2023-04-02T02:31:55.826Z,100335.22
2023-04-02T02:33:27.415Z,100337.19
2023-04-02T02:34:48.292Z,100334.72
2023-04-02T02:36:00.715Z,100333.63
2023-04-02T02:37:16.333Z,100337.88
2023-04-02T02:38:29.866Z,100341.94
2023-04-02T02:39:44.539Z,100339.34
2023-04-02T02:40:48.257Z,100348.47
2023-04-02T02:41:56.163Z,100348.31
2023-04-02T02:43:04.819Z,100352.91
2023-04-02T02:44:11.292Z,100354.38
2023-04-02T02:45:20.936Z,100355.31
2023-04-02T02:46:26.879Z,100356.31
2023-04-02T02:47:35.043Z,100360.78
2023-04-02T02:48:42.021Z,100356.41
2023-04-02T02:49:51.570Z,100364.53
2023-04-02T02:50:56.876Z,100368.09
2023-04-02T02:52:21.887Z,100370.81
2023-04-02T02:53:30.311Z,100369.16
2023-04-02T02:54:34.852Z,100371.03
2023-04-02T02:55:38.127Z,100372.66
2023-04-02T02:57:01.104Z,100369.88
2023-04-02T02:58:08.900Z,100376.69
2023-04-02T02:59:21.752Z,100367.78
2023-04-02T03:00:25.638Z,100384.72
2023-04-02T03:01:31.101Z,100374.94
2023-04-02T03:02:39.949Z,100382.00
2023-04-02T03:03:47.516Z,100382.00
2023-04-02T03:04:53.730Z,100382.09
2023-04-02T03:06:03.569Z,100392.69
2023-04-02T03:07:08.994Z,100389.34
2023-04-02T03:08:21.893Z,100381.47
2023-04-02T03:09:42.601Z,100395.63
2023-04-02T03:10:56.807Z,100405.47
2023-04-02T03:12:48.165Z,100401.88
2023-04-02T03:13:54.612Z,100402.69
2023-04-02T03:15:23.064Z,100410.41
2023-04-02T03:16:44.812Z,100405.19
2023-04-02T03:17:59.084Z,100412.41
2023-04-02T03:19:07.465Z,100419.53
2023-04-02T03:20:18.273Z,100409.88
2023-04-02T03:21:51.151Z,100425.75
2023-04-02T03:23:00.533Z,100421.22
2023-04-02T03:24:32.396Z,100414.81
2023-04-02T03:25:43.817Z,100418.50
2023-04-02T03:26:55.034Z,100426.41
2023-04-02T03:28:02.586Z,100424.56
2023-04-02T03:29:18.485Z,100430.78
2023-04-02T03:30:33.346Z,100421.13
2023-04-02T03:32:01.685Z,100438.63
2023-04-02T03:33:12.783Z,100436.91
2023-04-02T03:34:25.610Z,100431.66
2023-04-02T03:35:38.214Z,100444.00
2023-04-02T03:37:06.679Z,100440.34
2023-04-02T03:38:18.331Z,100443.06
2023-04-02T03:39:28.829Z,100456.09
2023-04-02T03:40:38.467Z,100448.50
2023-04-02T03:41:56.969Z,100452.91
2023-04-02T03:43:26.847Z,100455.59
2023-04-02T03:45:04.730Z,100452.00
2023-04-02T03:46:30.279Z,100468.06
2023-04-02T03:47:38.539Z,100464.50
2023-04-02T03:48:45.621Z,100463.63
2023-04-02T03:49:59.722Z,100464.47
2023-04-02T03:51:19.256Z,100471.44
2023-04-02T03:52:29.798Z,100469.53
2023-04-02T03:53:35.232Z,100462.38
2023-04-02T03:54:39.583Z,100467.59
2023-04-02T03:55:42.946Z,100470.38
2023-04-02T03:56:48.511Z,100472.94
2023-04-02T03:58:16.311Z,100473.75
2023-04-02T03:59:39.701Z,100477.47
2023-04-02T04:01:06.283Z,100488.03
2023-04-02T04:02:11.369Z,100485.56
2023-04-02T04:03:18.271Z,100491.69
2023-04-02T04:04:22.853Z,100490.06
2023-04-02T04:05:36.736Z,100493.56
2023-04-02T04:06:46.248Z,100498.69
2023-04-02T04:07:53.467Z,100493.47
2023-04-02T04:09:18.812Z,100503.16
2023-04-02T04:10:25.543Z,100508.41
2023-04-02T04:11:34.952Z,100512.63
2023-04-02T04:12:49.941Z,100517.06
2023-04-02T04:14:26.002Z,100512.81
2023-04-02T04:15:37.499Z,100519.69
2023-04-02T04:16:47.533Z,100522.16
2023-04-02T04:17:56.145Z,100526.59
2023-04-02T04:19:14.669Z,100533.66
2023-04-02T04:20:31.090Z,100533.66
2023-04-02T04:21:39.741Z,100525.81
2023-04-02T04:22:50.380Z,100538.09
2023-04-02T04:24:22.635Z,100542.72
2023-04-02T04:25:34.194Z,100545.47
2023-04-02T04:26:55.078Z,100546.28
2023-04-02T04:28:13.646Z,100547.28
2023-04-02T04:29:46.085Z,100542.88
2023-04-02T04:31:09.690Z,100546.28
2023-04-02T04:32:39.096Z,100547.03
2023-04-02T04:33:54.844Z,100554.78
2023-04-02T04:35:14.689Z,100549.59
2023-04-02T04:36:28.061Z,100554.78
2023-04-02T04:37:43.161Z,100553.25
2023-04-02T04:38:55.622Z,100559.38
2023-04-02T04:40:01.917Z,100569.09
2023-04-02T04:41:17.298Z,100554.94
2023-04-02T04:42:31.089Z,100568.09
2023-04-02T04:43:45.604Z,100563.75
2023-04-02T04:45:01.135Z,100569.84
2023-04-02T04:46:09.840Z,100575.09
2023-04-02T04:47:24.254Z,100578.75
2023-04-02T04:48:36.725Z,100577.72
2023-04-02T04:49:47.583Z,100586.63
2023-04-02T04:51:04.270Z,100576.97
2023-04-02T04:52:26.047Z,100592.72
2023-04-02T04:53:30.409Z,100597.97
2023-04-02T04:54:38.365Z,100586.34
2023-04-02T04:55:47.442Z,100596.84
2023-04-02T04:56:55.547Z,100603.19
2023-04-02T04:58:04.058Z,100595.84
2023-04-02T04:59:20.533Z,100600.50
2023-04-02T05:00:33.072Z,100591.75
2023-04-02T05:02:01.831Z,100608.22
2023-04-02T05:03:10.929Z,100604.91
2023-04-02T05:04:22.308Z,100610.38
2023-04-02T05:05:31.928Z,100613.78
2023-04-02T05:06:43.315Z,100616.47
2023-04-02T05:07:51.554Z,100619.06
2023-04-02T05:08:59.224Z,100621.63
2023-04-02T05:10:04.921Z,100619.13
2023-04-02T05:11:23.664Z,100628.78
2023-04-02T05:12:45.776Z,100625.03
2023-04-02T05:13:59.071Z,100624.94
2023-04-02T05:15:11.540Z,100634.41
2023-04-02T05:16:27.125Z,100627.22
2023-04-02T05:17:46.571Z,100636.03
2023-04-02T05:19:07.628Z,100639.56
2023-04-02T05:20:25.976Z,100640.66
2023-04-02T05:21:33.244Z,100636.25
2023-04-02T05:22:49.241Z,100640.84
2023-04-02T05:23:59.609Z,100647.13
2023-04-02T05:25:25.817Z,100644.16
2023-04-02T05:26:31.278Z,100653.78
2023-04-02T05:28:05.776Z,100649.31
2023-04-02T05:29:17.364Z,100657.72
2023-04-02T05:30:22.697Z,100652.38
2023-04-02T05:31:49.743Z,100657.47
2023-04-02T05:32:58.749Z,100663.59
2023-04-02T05:34:03.850Z,100658.16
2023-04-02T05:35:07.636Z,100657.38
2023-04-02T05:36:20.085Z,100655.66
2023-04-02T05:37:30.574Z,100658.25
2023-04-02T05:38:38.960Z,100660.81
2023-04-02T05:39:46.249Z,100668.69
2023-04-02T05:40:59.198Z,100672.41
2023-04-02T05:42:08.250Z,100676.00
2023-04-02T05:43:25.861Z,100669.03
2023-04-02T05:44:31.487Z,100678.63
2023-04-02T05:45:38.991Z,100684.94
2023-04-02T05:46:54.368Z,100678.66
2023-04-02T05:48:04.573Z,100677.72
2023-04-02T05:49:26.431Z,100688.44
2023-04-02T05:50:30.756Z,100681.22
2023-04-02T05:51:43.637Z,100682.22
2023-04-02T05:53:08.889Z,100684.78
2023-04-02T05:54:27.337Z,100684.94
2023-04-02T05:55:36.666Z,100695.31
2023-04-02T05:56:47.040Z,100696.03
2023-04-02T05:58:31.961Z,100701.53
2023-04-02T05:59:43.359Z,100700.41
2023-04-02T06:01:12.187Z,100705.63
2023-04-02T06:02:25.468Z,100708.25
2023-04-02T06:03:39.764Z,100708.44
2023-04-02T06:04:49.940Z,100711.06
2023-04-02T06:05:53.646Z,100717.69
2023-04-02T06:07:06.093Z,100709.69
2023-04-02T06:08:18.746Z,100714.97
2023-04-02T06:09:27.598Z,100723.66
2023-04-02T06:10:36.553Z,100722.88
2023-04-02T06:11:47.412Z,100720.28
2023-04-02T06:13:16.504Z,100724.09
2023-04-02T06:14:19.877Z,100722.28
2023-04-02T06:15:24.515Z,100719.47
2023-04-02T06:16:34.363Z,100725.56
2023-04-02T06:17:48.817Z,100732.66
2023-04-02T06:18:51.320Z,100736.31
2023-04-02T06:19:56.128Z,100739.06
2023-04-02T06:20:59.478Z,100731.09
2023-04-02T06:22:30.351Z,100739.00
2023-04-02T06:23:56.964Z,100739.19
2023-04-02T06:25:09.367Z,100743.63
2023-04-02T06:26:21.392Z,100745.44
2023-04-02T06:27:26.114Z,100740.16
2023-04-02T06:28:36.284Z,100747.22
2023-04-02T06:29:44.660Z,100757.81
2023-04-02T06:30:54.745Z,100745.56
2023-04-02T06:32:00.925Z,100754.34
2023-04-02T06:33:04.836Z,100752.66
2023-04-02T06:34:19.085Z,100758.84
2023-04-02T06:35:40.318Z,100762.38
2023-04-02T06:36:44.688Z,100771.97
2023-04-02T06:37:49.833Z,100769.34
2023-04-02T06:39:03.680Z,100772.91
2023-04-02T06:40:31.863Z,100773.81
2023-04-02T06:41:37.041Z,100778.19
2023-04-02T06:43:02.693Z,100781.75
2023-04-02T06:44:21.758Z,100787.81
2023-04-02T06:45:41.475Z,100788.66
2023-04-02T06:47:06.093Z,100792.03
2023-04-02T06:48:18.167Z,100791.19
2023-04-02T06:49:36.584Z,100793.88
2023-04-02T06:50:48.409Z,100793.88
2023-04-02T06:51:54.629Z,100802.69
2023-04-02T06:53:00.359Z,100803.63
2023-04-02T06:54:02.671Z,100807.97
2023-04-02T06:55:27.498Z,100809.81
2023-04-02T06:56:44.699Z,100808.06
2023-04-02T06:57:50.781Z,100809.84
2023-04-02T06:58:53.997Z,100815.13
2023-04-02T06:59:57.512Z,100814.13
2023-04-02T07:01:01.378Z,100825.63
2023-04-02T07:02:35.870Z,100815.97
2023-04-02T07:03:41.083Z,100831.00
2023-04-02T07:05:15.714Z,100824.78
2023-04-02T07:06:22.750Z,100827.44
2023-04-02T07:07:27.531Z,100831.84
2023-04-02T07:08:30.317Z,100821.25
2023-04-02T07:09:32.991Z,100830.91
2023-04-02T07:10:38.028Z,100833.53
2023-04-02T07:11:40.400Z,100833.56
2023-04-02T07:12:43.657Z,100829.09
2023-04-02T07:13:47.746Z,100827.22
2023-04-02T07:14:50.587Z,100830.78
2023-04-02T07:15:55.174Z,100833.53
2023-04-02T07:16:57.920Z,100836.09
2023-04-02T07:18:00.328Z,100835.19
2023-04-02T07:19:04.299Z,100833.41
2023-04-02T07:20:29.674Z,100832.59
2023-04-02T07:21:34.639Z,100832.56
2023-04-02T07:22:36.953Z,100843.13
2023-04-02T07:23:39.565Z,100850.28
2023-04-02T07:24:41.742Z,100844.09
2023-04-02T07:25:44.685Z,100839.69
2023-04-02T07:26:48.296Z,100838.78
2023-04-02T07:27:52.126Z,100849.44
2023-04-02T07:28:56.169Z,100847.69
2023-04-02T07:29:58.336Z,100857.34
2023-04-02T07:31:00.766Z,100851.16
2023-04-02T07:32:02.995Z,100853.72
2023-04-02T07:33:05.647Z,100846.69
2023-04-02T07:34:08.191Z,100851.91
2023-04-02T07:35:11.481Z,100853.69
2023-04-02T07:36:19.331Z,100861.63
2023-04-02T07:37:21.508Z,100853.69
2023-04-02T07:38:24.069Z,100856.22
2023-04-02T07:39:26.378Z,100867.53
2023-04-02T07:40:28.594Z,100865.03
2023-04-02T07:41:31.181Z,100864.19
2023-04-02T07:42:33.435Z,100860.50
2023-04-02T07:43:36.055Z,100872.88
2023-04-02T07:44:38.465Z,100862.19
2023-04-02T07:45:40.853Z,100870.94
2023-04-02T07:46:43.264Z,100871.06
2023-04-02T07:47:45.667Z,100870.28
2023-04-02T07:48:47.936Z,100875.72
2023-04-02T07:49:50.575Z,100869.44
2023-04-02T07:50:53.065Z,100876.34
2023-04-02T07:51:55.503Z,100873.88
2023-04-02T07:52:57.808Z,100873.88
2023-04-02T07:54:01.875Z,100876.41
2023-04-02T07:55:04.682Z,100882.38
2023-04-02T07:56:07.290Z,100877.88
2023-04-02T07:57:09.738Z,100888.75
2023-04-02T07:58:15.475Z,100880.09
2023-04-02T07:59:17.656Z,100887.91
2023-04-02T08:00:21.030Z,100887.00
2023-04-02T08:01:35.524Z,100890.34
2023-04-02T08:02:37.896Z,100895.50
2023-04-02T08:03:41.448Z,100891.03
2023-04-02T08:04:43.784Z,100893.47
2023-04-02T08:05:58.853Z,100890.91
2023-04-02T08:07:01.839Z,100894.53
2023-04-02T08:08:04.178Z,100899.78
2023-04-02T08:09:06.580Z,100897.00
2023-04-02T08:10:11.428Z,100901.53
2023-04-02T08:11:13.658Z,100904.94
2023-04-02T08:12:16.296Z,100907.66
2023-04-02T08:13:18.941Z,100912.09
2023-04-02T08:14:21.301Z,100908.75
2023-04-02T08:15:23.726Z,100911.34
2023-04-02T08:16:26.273Z,100912.09
2023-04-02T08:17:31.622Z,100912.84
2023-04-02T08:18:34.182Z,100917.16
2023-04-02T08:19:47.717Z,100922.31
2023-04-02T08:20:54.376Z,100919.66
2023-04-02T08:21:56.625Z,100921.16
2023-04-02T08:23:01.234Z,100918.31
2023-04-02T08:24:04.298Z,100925.53
2023-04-02T08:25:07.117Z,100923.59
2023-04-02T08:26:09.775Z,100921.16
2023-04-02T08:27:15.158Z,100927.50
2023-04-02T08:28:18.030Z,100933.81
2023-04-02T08:29:21.492Z,100930.19
2023-04-02T08:30:23.867Z,100933.81
2023-04-02T08:31:26.096Z,100931.16
2023-04-02T08:32:29.158Z,100933.81
2023-04-02T08:33:31.633Z,100945.50
2023-04-02T08:34:33.821Z,100944.59
2023-04-02T08:35:36.916Z,100946.25
2023-04-02T08:36:43.406Z,100947.25
2023-04-02T08:37:45.807Z,100940.97
2023-04-02T08:38:48.165Z,100948.16
2023-04-02T08:39:50.590Z,100948.06
2023-04-02T08:40:56.446Z,100948.00
2023-04-02T08:42:06.514Z,100950.72
2023-04-02T08:43:40.970Z,100949.81
2023-04-02T08:44:43.179Z,100950.69
2023-04-02T08:46:14.650Z,100961.50
2023-04-02T08:47:19.188Z,100956.94
2023-04-02T08:48:21.595Z,100955.03
2023-04-02T08:49:32.493Z,100960.44
2023-04-02T08:50:38.000Z,100955.28
2023-04-02T08:51:40.764Z,100962.31
2023-04-02T08:52:43.317Z,100972.84
2023-04-02T08:53:46.701Z,100964.09
2023-04-02T08:54:49.135Z,100971.19
2023-04-02T08:55:59.855Z,100974.75
2023-04-02T08:57:07.322Z,100973.78
2023-04-02T08:58:27.224Z,100980.06
2023-04-02T08:59:41.434Z,100972.91
2023-04-02T09:00:46.113Z,100978.16
2023-04-02T09:02:12.890Z,100982.41
2023-04-02T09:03:28.962Z,100980.50
2023-04-02T09:04:32.281Z,100985.72
2023-04-02T09:05:39.277Z,100983.06
2023-04-02T09:06:43.832Z,100983.94
2023-04-02T09:07:48.873Z,100985.00
2023-04-02T09:08:53.707Z,100984.13
2023-04-02T09:09:58.281Z,100989.31
2023-04-02T09:11:13.032Z,100990.97
2023-04-02T09:12:20.985Z,100989.19
2023-04-02T09:13:28.565Z,100995.28
2023-04-02T09:14:33.750Z,101001.66
2023-04-02T09:15:36.838Z,101001.59
2023-04-02T09:16:53.258Z,100994.41
2023-04-02T09:18:03.955Z,101000.44
2023-04-02T09:19:25.368Z,100997.94
2023-04-02T09:20:29.452Z,101001.53
2023-04-02T09:21:40.824Z,101002.38
2023-04-02T09:22:45.953Z,101014.63
2023-04-02T09:23:49.548Z,101001.72
2023-04-02T09:24:53.849Z,101010.66
2023-04-02T09:26:04.012Z,101012.69
2023-04-02T09:27:24.377Z,101012.03
2023-04-02T09:28:27.069Z,101013.72
2023-04-02T09:29:47.402Z,101024.16
2023-04-02T09:30:52.630Z,101021.47
2023-04-02T09:32:05.084Z,101015.28
2023-04-02T09:33:07.993Z,101025.78
2023-04-02T09:34:33.822Z,101023.72
2023-04-02T09:35:51.050Z,101024.34
2023-04-02T09:36:53.651Z,101035.00
2023-04-02T09:38:17.066Z,101030.66
2023-04-02T09:39:22.280Z,101029.84
2023-04-02T09:40:32.208Z,101037.03
2023-04-02T09:41:36.980Z,101043.44
2023-04-02T09:42:40.760Z,101046.19
2023-04-02T09:43:42.935Z,101045.28
2023-04-02T09:44:45.322Z,101049.72
2023-04-02T09:45:58.519Z,101054.88
2023-04-02T09:47:06.297Z,101056.69
2023-04-02T09:48:26.110Z,101055.59
2023-04-02T09:49:32.356Z,101053.56
2023-04-02T09:50:34.819Z,101054.59
2023-04-02T09:51:38.294Z,101057.13
2023-04-02T09:52:41.006Z,101053.81
2023-04-02T09:53:47.185Z,101055.59
2023-04-02T09:55:18.390Z,101053.75
2023-04-02T09:56:25.753Z,101066.81
2023-04-02T09:57:28.177Z,101056.06
2023-04-02T09:58:31.455Z,101051.75
2023-04-02T09:59:33.650Z,101058.91
2023-04-02T10:00:36.859Z,101065.88
2023-04-02T10:02:00.798Z,101057.97
2023-04-02T10:03:21.754Z,101054.34
2023-04-02T10:04:46.817Z,101061.50
2023-04-02T10:05:49.548Z,101064.16
2023-04-02T10:06:53.424Z,101070.34
2023-04-02T10:08:07.555Z,101071.22
2023-04-02T10:09:30.086Z,101073.13
2023-04-02T10:10:50.779Z,101082.25
2023-04-02T10:11:55.820Z,101077.94
2023-04-02T10:13:04.280Z,101077.25
2023-04-02T10:14:30.636Z,101078.06
2023-04-02T10:15:47.185Z,101074.41
2023-04-02T10:17:01.445Z,101079.44
2023-04-02T10:18:24.294Z,101081.06
2023-04-02T10:19:47.632Z,101075.13
2023-04-02T10:21:04.742Z,101082.94
2023-04-02T10:22:17.228Z,101093.69
2023-04-02T10:23:20.059Z,101090.78
2023-04-02T10:24:23.458Z,101092.63
2023-04-02T10:25:32.337Z,101098.06
2023-04-02T10:26:51.803Z,101092.88
2023-04-02T10:28:12.354Z,101091.97
2023-04-02T10:29:23.720Z,101099.69
2023-04-02T10:30:53.394Z,101105.84
2023-04-02T10:32:27.153Z,101110.28
2023-04-02T10:33:44.442Z,101109.66
2023-04-02T10:34:58.012Z,101102.91
2023-04-02T10:36:32.798Z,101112.47
2023-04-02T10:37:48.932Z,101111.31
2023-04-02T10:39:09.996Z,101110.16
2023-04-02T10:40:29.811Z,101118.03
2023-04-02T10:41:51.423Z,101118.22
2023-04-02T10:43:24.665Z,101123.56
2023-04-02T10:44:48.852Z,101119.13
2023-04-02T10:46:06.352Z,101120.97
2023-04-02T10:47:31.128Z,101114.09
2023-04-02T10:48:58.433Z,101113.94
2023-04-02T10:50:24.782Z,101116.41
2023-04-02T10:51:48.649Z,101117.50
2023-04-02T10:53:15.528Z,101119.22
2023-04-02T10:54:33.969Z,101122.53
2023-04-02T10:55:43.521Z,101128.72
2023-04-02T10:56:52.025Z,101125.88
2023-04-02T10:57:59.849Z,101132.88
2023-04-02T10:59:17.727Z,101134.97
2023-04-02T11:00:28.138Z,101133.97
2023-04-02T11:01:32.094Z,101141.00
2023-04-02T11:02:56.885Z,101146.38
2023-04-02T11:04:05.671Z,101145.47
2023-04-02T11:05:43.369Z,101140.88
2023-04-02T11:06:51.815Z,101147.69
2023-04-02T11:08:07.415Z,101150.63
2023-04-02T11:09:24.609Z,101147.84
2023-04-02T11:10:31.269Z,101158.38
2023-04-02T11:11:41.834Z,101149.50
2023-04-02T11:13:01.566Z,101158.38
2023-04-02T11:14:09.650Z,101157.88
2023-04-02T11:15:17.937Z,101158.72
2023-04-02T11:16:21.400Z,101163.13
2023-04-02T11:17:24.611Z,101162.19
2023-04-02T11:18:38.871Z,101170.03
2023-04-02T11:19:41.003Z,101168.94
2023-04-02T11:20:55.468Z,101168.03
2023-04-02T11:22:03.785Z,101168.88
2023-04-02T11:23:13.558Z,101171.53
2023-04-02T11:24:30.231Z,101170.03
2023-04-02T11:25:32.689Z,101177.16
2023-04-02T11:26:47.740Z,101173.81
2023-04-02T11:27:50.036Z,101189.56
2023-04-02T11:29:06.424Z,101184.13
2023-04-02T11:30:27.074Z,101182.31
2023-04-02T11:31:29.487Z,101180.38
2023-04-02T11:32:39.565Z,101184.66
2023-04-02T11:33:44.997Z,101186.25
2023-04-02T11:34:56.316Z,101184.81
2023-04-02T11:36:44.090Z,101185.69
2023-04-02T11:37:46.923Z,101190.06
2023-04-02T11:38:52.347Z,101191.41
2023-04-02T11:39:59.762Z,101190.28
2023-04-02T11:41:02.059Z,101188.44
2023-04-02T11:42:21.973Z,101199.97
2023-04-02T11:43:33.675Z,101195.00
2023-04-02T11:44:36.180Z,101200.25
2023-04-02T11:45:52.920Z,101202.72
2023-04-02T11:47:15.423Z,101208.09
2023-04-02T11:48:18.109Z,101203.84
2023-04-02T11:49:33.159Z,101207.16
2023-04-02T11:50:44.679Z,101201.63
2023-04-02T11:51:52.280Z,101195.31
2023-04-02T11:53:03.439Z,101212.34
2023-04-02T11:54:23.643Z,101215.00
2023-04-02T11:55:46.013Z,101212.13
2023-04-02T11:56:56.726Z,101215.63
2023-04-02T11:58:33.830Z,101219.78
2023-04-02T12:00:14.177Z,101217.22
2023-04-02T12:01:46.429Z,101220.03
2023-04-02T12:03:27.923Z,101227.78
2023-04-02T12:04:32.958Z,101226.06
2023-04-02T12:05:43.340Z,101230.72
2023-04-02T12:07:00.481Z,101228.03
2023-04-02T12:08:47.259Z,101229.72
2023-04-02T12:10:00.820Z,101236.19
2023-04-02T12:11:03.801Z,101236.94
2023-04-02T12:12:23.103Z,101236.84
2023-04-02T12:13:40.996Z,101245.88
2023-04-02T12:14:48.815Z,101244.03
2023-04-02T12:15:52.539Z,101235.03
2023-04-02T12:16:55.396Z,101242.47
2023-04-02T12:18:16.889Z,101248.69
2023-04-02T12:19:19.514Z,101243.75
2023-04-02T12:20:27.268Z,101242.06
2023-04-02T12:21:30.467Z,101248.13
2023-04-02T12:22:35.342Z,101244.38
2023-04-02T12:23:39.063Z,101255.06
2023-04-02T12:24:42.070Z,101248.88
2023-04-02T12:25:53.044Z,101253.34
2023-04-02T12:27:17.208Z,101260.25
2023-04-02T12:28:20.051Z,101258.34
2023-04-02T12:29:27.439Z,101254.66
2023-04-02T12:30:30.544Z,101258.31
2023-04-02T12:31:33.652Z,101266.16
2023-04-02T12:32:36.244Z,101257.38
2023-04-02T12:33:40.101Z,101264.63
2023-04-02T12:34:46.287Z,101267.59
2023-04-02T12:35:51.225Z,101260.50
2023-04-02T12:37:05.481Z,101271.13
2023-04-02T12:38:31.427Z,101265.56
2023-04-02T12:39:35.084Z,101267.09
2023-04-02T12:40:37.729Z,101274.41
2023-04-02T12:41:40.843Z,101264.69
2023-04-02T12:42:43.383Z,101260.97
2023-04-02T12:43:45.596Z,101262.59
2023-04-02T12:44:51.174Z,101262.41
2023-04-02T12:45:56.061Z,101260.50
2023-04-02T12:46:58.927Z,101269.22
2023-04-02T12:48:06.090Z,101274.28
2023-04-02T12:49:23.290Z,101270.63
2023-04-02T12:50:26.322Z,101267.34
2023-04-02T12:51:28.560Z,101275.16
2023-04-02T12:52:30.918Z,101277.72
2023-04-02T12:53:41.281Z,101263.75
2023-04-02T12:55:01.220Z,101270.72
2023-04-02T12:56:04.591Z,101269.91
2023-04-02T12:57:23.193Z,101266.47
2023-04-02T12:58:37.923Z,101275.22
2023-04-02T12:59:41.645Z,101267.66
2023-04-02T13:00:43.942Z,101264.06
2023-04-02T13:02:01.521Z,101273.09
2023-04-02T13:03:06.566Z,101273.94
2023-04-02T13:04:14.965Z,101275.59
2023-04-02T13:05:44.151Z,101290.03
2023-04-02T13:06:55.141Z,101279.09
2023-04-02T13:07:57.549Z,101276.28
2023-04-02T13:09:01.738Z,101284.94
2023-04-02T13:10:23.445Z,101286.59
2023-04-02T13:11:42.048Z,101295.50
2023-04-02T13:12:44.539Z,101293.19
2023-04-02T13:13:48.862Z,101289.81
2023-04-02T13:14:56.550Z,101289.59
2023-04-02T13:16:14.765Z,101284.25
2023-04-02T13:17:36.753Z,101292.16
2023-04-02T13:18:39.556Z,101295.56
2023-04-02T13:19:41.760Z,101301.00
2023-04-02T13:20:55.058Z,101298.19
2023-04-02T13:21:59.961Z,101289.59
2023-04-02T13:23:27.037Z,101303.81
2023-04-02T13:24:33.639Z,101297.00
2023-04-02T13:25:37.111Z,101294.50
2023-04-02T13:26:39.421Z,101301.38
2023-04-02T13:27:41.802Z,101305.81
2023-04-02T13:29:14.392Z,101300.16
2023-04-02T13:30:24.565Z,101309.22
2023-04-02T13:31:27.814Z,101312.75